createdAt,value
2023-02-26T00:01:58.549Z,101938.05
2023-02-26T00:04:27.986Z,101945.53
2023-02-26T00:06:59.723Z,101943.48
2023-02-26T00:09:28.783Z,101950.89
2023-02-26T00:11:59.308Z,101951.09
2023-02-26T00:14:29.179Z,101949.83
2023-02-26T00:17:01.646Z,101956.17
2023-02-26T00:19:31.443Z,101953.01
2023-02-26T00:22:01.733Z,101955.78
2023-02-26T00:24:31.366Z,101960.89
2023-02-26T00:27:00.685Z,101961.33
2023-02-26T00:29:30.933Z,101966.22
2023-02-26T00:32:00.737Z,101962.88
2023-02-26T00:34:30.463Z,101972.11
2023-02-26T00:37:20.363Z,101976.29
2023-02-26T00:39:58.873Z,101987.22
2023-02-26T00:42:28.837Z,101985.72
2023-02-26T00:44:58.694Z,101983.38
2023-02-26T00:47:54.834Z,101994.44
2023-02-26T00:50:25.946Z,101991.73
2023-02-26T00:52:58.432Z,101998.11
2023-02-26T00:55:29.439Z,102008.77
2023-02-26T00:57:58.848Z,102008.69
2023-02-26T01:00:28.571Z,102012.91
2023-02-26T01:02:58.772Z,102012.36
2023-02-26T01:05:28.344Z,102015.85
2023-02-26T01:08:32.475Z,102018.66
2023-02-26T01:11:02.202Z,102009.40
2023-02-26T01:13:32.034Z,102008.70
2023-02-26T01:16:04.914Z,102013.02
2023-02-26T01:18:39.634Z,102012.52
2023-02-26T01:21:11.728Z,102018.52
2023-02-26T01:23:44.687Z,102013.53
2023-02-26T01:26:20.711Z,102018.00
2023-02-26T01:28:50.577Z,102023.37
2023-02-26T01:31:46.122Z,102035.62
2023-02-26T01:34:21.653Z,102032.59
2023-02-26T01:36:57.444Z,102038.10
2023-02-26T01:39:38.789Z,102039.47
2023-02-26T01:42:14.185Z,102059.99
2023-02-26T01:44:58.430Z,102051.31
2023-02-26T01:47:36.339Z,102058.05
2023-02-26T01:50:14.854Z,102059.53
2023-02-26T01:52:53.548Z,102062.08
2023-02-26T01:55:25.476Z,102056.90
2023-02-26T01:57:57.062Z,102069.38
2023-02-26T02:00:26.382Z,102072.53
2023-02-26T02:02:55.798Z,102068.81
2023-02-26T02:05:31.331Z,102063.66
2023-02-26T02:08:01.612Z,102068.55
2023-02-26T02:10:31.504Z,102073.86
2023-02-26T02:13:19.101Z,102075.80
2023-02-26T02:15:52.705Z,102075.90
2023-02-26T02:18:40.211Z,102078.92
2023-02-26T02:21:24.965Z,102086.28
2023-02-26T02:24:17.251Z,102087.58
2023-02-26T02:26:59.556Z,102088.02
2023-02-26T02:29:34.617Z,102098.64
2023-02-26T02:32:22.186Z,102091.70
2023-02-26T02:34:54.469Z,102090.16
2023-02-26T02:37:32.920Z,102097.23
2023-02-26T02:40:05.395Z,102103.81
2023-02-26T02:42:37.020Z,102104.67
2023-02-26T02:45:10.887Z,102100.93
2023-02-26T02:47:42.980Z,102100.79
2023-02-26T02:50:24.292Z,102110.30
2023-02-26T02:52:57.216Z,102106.53
2023-02-26T02:55:29.906Z,102113.78
2023-02-26T02:58:05.022Z,102108.55
2023-02-26T03:00:36.349Z,102111.25
2023-02-26T03:03:37.804Z,102113.41
2023-02-26T03:06:07.873Z,102111.25
2023-02-26T03:08:41.636Z,102116.51
2023-02-26T03:11:11.336Z,102122.67
2023-02-26T03:13:41.333Z,102124.19
2023-02-26T03:16:21.660Z,102125.03
2023-02-26T03:19:16.173Z,102134.27
2023-02-26T03:22:05.479Z,102140.83
2023-02-26T03:24:42.426Z,102137.54
2023-02-26T03:27:15.048Z,102143.49
2023-02-26T03:30:00.797Z,102143.02
2023-02-26T03:32:50.558Z,102147.69
2023-02-26T03:35:55.741Z,102147.35
2023-02-26T03:38:28.350Z,102152.27
2023-02-26T03:41:02.476Z,102157.89
2023-02-26T03:43:36.226Z,102157.34
2023-02-26T03:46:08.863Z,102160.19
2023-02-26T03:48:38.559Z,102163.36
2023-02-26T03:51:11.113Z,102171.88
2023-02-26T03:54:00.308Z,102168.53
2023-02-26T03:56:42.952Z,102180.72
2023-02-26T03:59:14.937Z,102176.05
2023-02-26T04:01:52.194Z,102181.15
2023-02-26T04:04:34.390Z,102182.03
2023-02-26T04:07:03.484Z,102190.72
2023-02-26T04:09:33.075Z,102187.48
2023-02-26T04:12:02.994Z,102192.50
2023-02-26T04:14:32.216Z,102190.36
2023-02-26T04:17:01.589Z,102190.83
2023-02-26T04:19:31.007Z,102194.84
2023-02-26T04:22:00.486Z,102194.97
2023-02-26T04:24:30.010Z,102197.58
2023-02-26T04:27:01.184Z,102204.48
2023-02-26T04:29:32.453Z,102203.69
2023-02-26T04:32:02.902Z,102205.03
2023-02-26T04:34:32.677Z,102214.91
2023-02-26T04:37:02.118Z,102219.47
2023-02-26T04:39:32.096Z,102224.25
2023-02-26T04:42:01.516Z,102227.44
2023-02-26T04:44:31.361Z,102228.84
2023-02-26T04:47:01.639Z,102236.06
2023-02-26T04:49:31.505Z,102239.38
2023-02-26T04:52:00.901Z,102235.55
2023-02-26T04:54:30.541Z,102235.55
2023-02-26T04:56:59.862Z,102239.50
2023-02-26T04:59:29.543Z,102242.89
2023-02-26T05:02:00.190Z,102250.77
2023-02-26T05:04:29.728Z,102241.23
2023-02-26T05:07:01.201Z,102251.57
2023-02-26T05:09:30.522Z,102253.36
2023-02-26T05:11:59.858Z,102261.13
2023-02-26T05:14:29.163Z,102262.50
2023-02-26T05:16:59.531Z,102261.26
2023-02-26T05:19:29.362Z,102260.87
2023-02-26T05:21:58.735Z,102265.17
2023-02-26T05:24:28.022Z,102271.69
2023-02-26T05:26:57.513Z,102265.28
2023-02-26T05:29:26.822Z,102269.59
2023-02-26T05:31:57.437Z,102261.91
2023-02-26T05:34:26.916Z,102264.49
2023-02-26T05:36:56.150Z,102276.05
2023-02-26T05:39:25.394Z,102270.42
2023-02-26T05:41:55.511Z,102270.40
2023-02-26T05:44:25.419Z,102270.45
2023-02-26T05:46:54.906Z,102277.80
2023-02-26T05:49:24.197Z,102280.34
2023-02-26T05:51:53.449Z,102284.64
2023-02-26T05:54:22.731Z,102282.44
2023-02-26T05:56:52.317Z,102282.83
2023-02-26T05:59:21.874Z,102294.89
2023-02-26T06:01:51.288Z,102301.89
2023-02-26T06:04:21.265Z,102299.34
2023-02-26T06:06:50.470Z,102309.09
2023-02-26T06:09:19.735Z,102310.40
2023-02-26T06:11:48.937Z,102315.14
2023-02-26T06:14:18.579Z,102319.03
2023-02-26T06:16:47.910Z,102327.20
2023-02-26T06:19:17.473Z,102334.03
2023-02-26T06:21:47.083Z,102334.53
2023-02-26T06:24:16.862Z,102343.89
2023-02-26T06:26:46.139Z,102340.14
2023-02-26T06:29:15.435Z,102345.31
2023-02-26T06:31:45.388Z,102352.26
2023-02-26T06:34:15.129Z,102356.01
2023-02-26T06:36:44.878Z,102360.75
2023-02-26T06:39:14.783Z,102355.55
2023-02-26T06:41:44.069Z,102368.80
2023-02-26T06:44:13.450Z,102367.92
2023-02-26T06:46:42.779Z,102366.63
2023-02-26T06:49:12.172Z,102364.08
2023-02-26T06:51:41.460Z,102373.48
2023-02-26T06:54:11.098Z,102373.45
2023-02-26T06:56:40.566Z,102376.17
2023-02-26T06:59:09.920Z,102381.30
2023-02-26T07:01:40.060Z,102385.48
2023-02-26T07:04:09.452Z,102394.96
2023-02-26T07:06:38.887Z,102403.95
2023-02-26T07:09:08.327Z,102403.88
2023-02-26T07:11:37.670Z,102408.58
2023-02-26T07:14:07.096Z,102420.12
2023-02-26T07:16:36.583Z,102421.84
2023-02-26T07:19:05.849Z,102424.38
2023-02-26T07:21:35.716Z,102431.55
2023-02-26T07:24:05.614Z,102431.00
2023-02-26T07:26:34.967Z,102437.66
2023-02-26T07:29:04.744Z,102436.70
2023-02-26T07:31:34.679Z,102441.85
2023-02-26T07:34:04.482Z,102444.09
2023-02-26T07:36:33.734Z,102454.69
2023-02-26T07:39:03.150Z,102460.39
2023-02-26T07:41:32.344Z,102466.80
2023-02-26T07:44:01.664Z,102480.07
2023-02-26T07:46:30.894Z,102482.23
2023-02-26T07:49:00.729Z,102484.09
2023-02-26T07:51:32.398Z,102490.30
2023-02-26T07:54:00.862Z,102484.83
2023-02-26T07:56:30.729Z,102486.07
2023-02-26T07:59:00.516Z,102494.02
2023-02-26T08:01:29.830Z,102493.41
2023-02-26T08:03:59.103Z,102499.45
2023-02-26T08:06:29.317Z,102495.39
2023-02-26T08:08:58.578Z,102499.09
2023-02-26T08:11:28.307Z,102494.55
2023-02-26T08:13:57.713Z,102505.91
2023-02-26T08:16:27.585Z,102511.53
2023-02-26T08:18:57.010Z,102513.14
2023-02-26T08:21:26.684Z,102513.71
2023-02-26T08:23:56.046Z,102517.38
2023-02-26T08:26:25.981Z,102524.13
2023-02-26T08:28:55.753Z,102523.22
2023-02-26T08:31:25.813Z,102530.73
2023-02-26T08:33:55.855Z,102525.93
2023-02-26T08:36:26.495Z,102534.68
2023-02-26T08:38:56.058Z,102532.71
2023-02-26T08:41:27.701Z,102543.79
2023-02-26T08:43:57.585Z,102547.95
2023-02-26T08:46:28.030Z,102556.99
2023-02-26T08:48:57.646Z,102556.48
2023-02-26T08:51:27.441Z,102565.05
2023-02-26T08:53:56.906Z,102570.83
2023-02-26T08:56:26.862Z,102567.23
2023-02-26T08:58:56.650Z,102578.56
2023-02-26T09:01:26.197Z,102573.97
2023-02-26T09:03:55.807Z,102571.78
2023-02-26T09:06:25.418Z,102573.44
2023-02-26T09:08:55.386Z,102583.06
2023-02-26T09:11:25.424Z,102584.70
2023-02-26T09:13:54.833Z,102581.69
2023-02-26T09:16:24.559Z,102592.30
2023-02-26T09:18:54.166Z,102592.62
2023-02-26T09:21:24.106Z,102586.16
2023-02-26T09:23:53.335Z,102601.80
2023-02-26T09:26:23.183Z,102594.55
2023-02-26T09:28:52.701Z,102602.66
2023-02-26T09:31:22.312Z,102606.54
2023-02-26T09:33:51.642Z,102607.51
2023-02-26T09:36:21.427Z,102605.23
2023-02-26T09:38:50.638Z,102611.14
2023-02-26T09:41:32.367Z,102616.95
2023-02-26T09:44:25.606Z,102617.52
2023-02-26T09:47:19.280Z,102621.55
2023-02-26T09:50:15.967Z,102620.33
2023-02-26T09:52:51.627Z,102635.20
2023-02-26T09:55:26.668Z,102641.38
2023-02-26T09:57:59.216Z,102646.78
2023-02-26T10:00:35.462Z,102643.19
2023-02-26T10:03:19.986Z,102653.77
2023-02-26T10:05:58.127Z,102646.16
2023-02-26T10:08:30.631Z,102653.75
2023-02-26T10:11:15.285Z,102656.98
2023-02-26T10:13:57.275Z,102656.25
2023-02-26T10:16:23.710Z,102649.38
2023-02-26T10:19:00.516Z,102662.53
2023-02-26T10:21:41.741Z,102662.09
2023-02-26T10:24:14.234Z,102664.00
2023-02-26T10:26:46.594Z,102670.63
2023-02-26T10:29:31.069Z,102664.86
2023-02-26T10:32:16.147Z,102667.80
2023-02-26T10:34:53.654Z,102678.66
2023-02-26T10:37:44.415Z,102681.70
2023-02-26T10:40:29.178Z,102673.13
2023-02-26T10:43:07.471Z,102675.61
2023-02-26T10:45:39.942Z,102682.66
2023-02-26T10:48:15.425Z,102677.06
2023-02-26T10:50:56.963Z,102676.47
2023-02-26T10:53:28.461Z,102669.89
2023-02-26T10:56:00.860Z,102686.27
2023-02-26T10:58:30.075Z,102680.06
2023-02-26T11:00:59.361Z,102677.47
2023-02-26T11:03:34.821Z,102681.80
2023-02-26T11:06:06.596Z,102680.87
2023-02-26T11:08:39.044Z,102682.88
2023-02-26T11:11:09.021Z,102685.30
2023-02-26T11:13:40.700Z,102686.50
2023-02-26T11:16:18.656Z,102687.05
2023-02-26T11:18:54.021Z,102682.95
2023-02-26T11:21:26.775Z,102682.03
2023-02-26T11:23:59.771Z,102672.31
2023-02-26T11:26:32.422Z,102677.45
2023-02-26T11:29:01.777Z,102685.83
2023-02-26T11:31:32.066Z,102675.21
2023-02-26T11:34:04.774Z,102664.05
2023-02-26T11:36:35.502Z,102663.84
2023-02-26T11:39:08.010Z,102676.61
2023-02-26T11:41:37.982Z,102677.23
2023-02-26T11:44:09.635Z,102669.12
2023-02-26T11:46:42.047Z,102660.84
2023-02-26T11:49:14.076Z,102664.95
2023-02-26T11:51:46.443Z,102673.23
2023-02-26T11:54:24.340Z,102662.45
2023-02-26T11:56:53.779Z,102663.04
2023-02-26T11:59:24.921Z,102659.74
2023-02-26T12:01:55.193Z,102668.70
2023-02-26T12:04:27.892Z,102660.58
2023-02-26T12:06:58.088Z,102666.95
2023-02-26T12:09:28.180Z,102656.69
2023-02-26T12:12:15.847Z,102654.35
2023-02-26T12:14:53.913Z,102651.73
2023-02-26T12:17:35.221Z,102643.63
2023-02-26T12:20:15.299Z,102655.27
2023-02-26T12:23:04.427Z,102648.47
2023-02-26T12:26:10.195Z,102655.05
2023-02-26T12:28:59.202Z,102655.77
2023-02-26T12:31:47.268Z,102653.28
2023-02-26T12:34:34.926Z,102647.13
2023-02-26T12:37:29.284Z,102654.58
2023-02-26T12:40:07.650Z,102650.13
2023-02-26T12:43:10.480Z,102645.12
2023-02-26T12:46:02.226Z,102648.83
2023-02-26T12:48:46.508Z,102651.84
2023-02-26T12:51:28.181Z,102651.56
2023-02-26T12:54:28.029Z,102645.39
2023-02-26T12:57:23.322Z,102650.15
2023-02-26T13:00:15.113Z,102647.42
2023-02-26T13:03:12.137Z,102647.78
2023-02-26T13:06:02.669Z,102653.71
2023-02-26T13:08:35.752Z,102646.34
2023-02-26T13:11:08.184Z,102655.93
2023-02-26T13:13:46.759Z,102643.17
2023-02-26T13:16:34.601Z,102643.14
2023-02-26T13:19:19.264Z,102644.73
2023-02-26T13:21:54.313Z,102649.19
2023-02-26T13:24:30.098Z,102644.08
2023-02-26T13:27:00.371Z,102635.91
2023-02-26T13:29:36.376Z,102643.63
2023-02-26T13:32:13.245Z,102638.11
2023-02-26T13:34:46.519Z,102635.23
2023-02-26T13:37:30.466Z,102632.91
2023-02-26T13:40:22.558Z,102629.38
2023-02-26T13:43:14.505Z,102632.88
2023-02-26T13:45:53.023Z,102631.53
2023-02-26T13:48:25.473Z,102633.20
2023-02-26T13:51:13.984Z,102633.97
2023-02-26T13:53:49.848Z,102644.42
2023-02-26T13:56:34.511Z,102634.52
2023-02-26T13:59:20.550Z,102636.44
2023-02-26T14:01:53.769Z,102631.67
2023-02-26T14:04:26.483Z,102635.50
2023-02-26T14:07:13.848Z,102633.77
2023-02-26T14:10:02.015Z,102637.84
2023-02-26T14:12:36.386Z,102641.34
2023-02-26T14:15:20.564Z,102638.73
2023-02-26T14:17:52.281Z,102650.23
2023-02-26T14:20:27.650Z,102638.73
2023-02-26T14:23:12.603Z,102642.97
2023-02-26T14:25:45.038Z,102635.91
2023-02-26T14:28:30.205Z,102639.28
2023-02-26T14:31:22.377Z,102629.93
2023-02-26T14:34:00.755Z,102636.05
2023-02-26T14:36:49.727Z,102640.08
2023-02-26T14:39:33.378Z,102636.06
2023-02-26T14:42:05.999Z,102634.23
2023-02-26T14:44:38.246Z,102640.08
2023-02-26T14:47:07.994Z,102640.27
2023-02-26T14:49:40.432Z,102639.87
2023-02-26T14:52:30.817Z,102642.25
2023-02-26T14:55:07.596Z,102641.69
2023-02-26T14:58:05.693Z,102640.77
2023-02-26T15:00:49.791Z,102640.63
2023-02-26T15:03:25.158Z,102642.27
2023-02-26T15:06:03.446Z,102648.97
2023-02-26T15:08:35.904Z,102644.09
2023-02-26T15:11:24.977Z,102639.98
2023-02-26T15:14:00.528Z,102642.07
2023-02-26T15:16:44.831Z,102645.52
2023-02-26T15:19:36.888Z,102643.21
2023-02-26T15:22:23.785Z,102646.46
2023-02-26T15:24:53.624Z,102643.34
2023-02-26T15:27:23.056Z,102648.02
2023-02-26T15:29:53.161Z,102648.95
2023-02-26T15:32:28.901Z,102651.27
2023-02-26T15:35:01.490Z,102650.19
2023-02-26T15:37:32.303Z,102651.19
2023-02-26T15:40:04.991Z,102650.93
2023-02-26T15:42:38.334Z,102657.98
2023-02-26T15:45:16.951Z,102652.52
2023-02-26T15:47:47.965Z,102657.42
2023-02-26T15:50:18.459Z,102650.50
2023-02-26T15:52:50.055Z,102656.56
2023-02-26T15:55:19.498Z,102661.70
2023-02-26T15:57:49.336Z,102667.53
2023-02-26T16:00:27.657Z,102663.68
2023-02-26T16:02:58.944Z,102665.77
2023-02-26T16:05:29.351Z,102674.54
2023-02-26T16:07:58.920Z,102668.26
2023-02-26T16:10:31.311Z,102671.59
2023-02-26T16:13:01.869Z,102673.53
2023-02-26T16:15:39.109Z,102674.73
2023-02-26T16:18:12.046Z,102666.95
2023-02-26T16:20:44.305Z,102674.16
2023-02-26T16:23:16.890Z,102676.38
2023-02-26T16:25:57.952Z,102681.35
2023-02-26T16:28:37.828Z,102675.83
2023-02-26T16:31:12.647Z,102683.94
2023-02-26T16:33:43.193Z,102686.21
2023-02-26T16:36:16.381Z,102690.13
2023-02-26T16:38:49.681Z,102686.44
2023-02-26T16:41:22.231Z,102688.70
2023-02-26T16:43:52.721Z,102690.57
2023-02-26T16:46:33.732Z,102693.84
2023-02-26T16:49:08.005Z,102697.61
2023-02-26T16:51:39.876Z,102698.34
2023-02-26T16:54:27.267Z,102697.81
2023-02-26T16:57:09.085Z,102707.53
2023-02-26T16:59:39.630Z,102712.98
2023-02-26T17:02:22.434Z,102710.70
2023-02-26T17:05:03.880Z,102713.81
2023-02-26T17:07:36.203Z,102718.23
2023-02-26T17:10:11.541Z,102716.91
2023-02-26T17:12:50.226Z,102728.28
2023-02-26T17:15:35.829Z,102726.36
2023-02-26T17:18:05.543Z,102733.63
2023-02-26T17:20:34.957Z,102739.20
2023-02-26T17:23:06.156Z,102745.84
2023-02-26T17:25:38.590Z,102754.63
2023-02-26T17:28:07.424Z,102757.80
2023-02-26T17:30:38.339Z,102750.16
2023-02-26T17:33:10.907Z,102756.86
2023-02-26T17:35:39.754Z,102760.05
2023-02-26T17:38:13.344Z,102764.42
2023-02-26T17:40:45.334Z,102764.27
2023-02-26T17:43:15.007Z,102764.47
2023-02-26T17:45:44.330Z,102772.39
2023-02-26T17:48:16.304Z,102770.37
2023-02-26T17:50:51.398Z,102773.49
2023-02-26T17:53:22.437Z,102772.70
2023-02-26T17:55:53.523Z,102780.56
2023-02-26T17:58:32.145Z,102778.50
2023-02-26T18:01:03.994Z,102774.36
2023-02-26T18:03:33.643Z,102789.95
2023-02-26T18:06:03.372Z,102793.13
2023-02-26T18:08:34.734Z,102794.88
2023-02-26T18:11:05.016Z,102788.03
2023-02-26T18:13:34.478Z,102791.73
2023-02-26T18:16:04.477Z,102799.71
2023-02-26T18:18:34.007Z,102802.28
2023-02-26T18:21:04.871Z,102800.06
2023-02-26T18:23:34.199Z,102803.17
2023-02-26T18:26:03.678Z,102802.41
2023-02-26T18:28:33.436Z,102806.04
2023-02-26T18:31:04.467Z,102806.11
2023-02-26T18:33:33.798Z,102806.11
2023-02-26T18:36:03.413Z,102807.17
2023-02-26T18:38:32.716Z,102805.02
2023-02-26T18:41:02.269Z,102805.13
2023-02-26T18:43:31.607Z,102810.25
2023-02-26T18:46:02.213Z,102814.23
2023-02-26T18:48:32.113Z,102812.39
2023-02-26T18:51:01.675Z,102816.86
2023-02-26T18:53:30.910Z,102820.03
2023-02-26T18:56:00.173Z,102823.88
2023-02-26T18:58:29.531Z,102820.01
2023-02-26T19:00:59.309Z,102825.81
2023-02-26T19:03:29.011Z,102833.52
2023-02-26T19:06:04.364Z,102833.87
2023-02-26T19:08:34.025Z,102835.45
2023-02-26T19:11:03.434Z,102834.22
2023-02-26T19:13:34.615Z,102835.52
2023-02-26T19:16:04.189Z,102839.11
2023-02-26T19:18:33.840Z,102837.41
2023-02-26T19:21:04.770Z,102839.64
2023-02-26T19:23:34.093Z,102839.67
2023-02-26T19:26:04.105Z,102843.61
2023-02-26T19:28:33.893Z,102848.45
2023-02-26T19:31:03.617Z,102849.65
2023-02-26T19:33:33.119Z,102844.48
2023-02-26T19:36:04.033Z,102852.00
2023-02-26T19:38:33.586Z,102849.03
2023-02-26T19:41:02.938Z,102853.77
2023-02-26T19:43:32.461Z,102853.77
2023-02-26T19:46:01.862Z,102850.64
2023-02-26T19:48:31.977Z,102847.61
2023-02-26T19:51:03.066Z,102853.33
2023-02-26T19:53:32.358Z,102853.92
2023-02-26T19:56:02.431Z,102851.31
2023-02-26T19:58:32.350Z,102853.89
2023-02-26T20:01:03.628Z,102857.86
2023-02-26T20:03:33.249Z,102857.47
2023-02-26T20:06:03.432Z,102861.80
2023-02-26T20:08:32.828Z,102863.16
2023-02-26T20:11:02.818Z,102862.68
2023-02-26T20:13:34.077Z,102872.58
2023-02-26T20:16:05.938Z,102870.09
2023-02-26T20:18:36.013Z,102872.69
2023-02-26T20:21:08.384Z,102879.56
2023-02-26T20:23:37.793Z,102878.30
2023-02-26T20:26:14.839Z,102877.36
2023-02-26T20:28:44.294Z,102874.02
2023-02-26T20:31:14.014Z,102880.59
2023-02-26T20:33:43.530Z,102878.03
2023-02-26T20:36:12.955Z,102874.63
2023-02-26T20:38:43.031Z,102881.66
2023-02-26T20:41:12.340Z,102882.56
2023-02-26T20:43:41.809Z,102886.55
2023-02-26T20:46:11.384Z,102888.78
2023-02-26T20:48:42.641Z,102898.30
2023-02-26T20:51:12.282Z,102900.14
2023-02-26T20:53:42.637Z,102912.27
2023-02-26T20:56:11.933Z,102896.77
2023-02-26T20:58:41.318Z,102906.72
2023-02-26T21:01:10.969Z,102908.48
2023-02-26T21:03:40.673Z,102908.48
2023-02-26T21:06:11.005Z,102913.31
2023-02-26T21:08:40.692Z,102910.76
2023-02-26T21:11:10.377Z,102912.54
2023-02-26T21:13:39.913Z,102914.23
2023-02-26T21:16:09.326Z,102919.05
2023-02-26T21:18:38.870Z,102922.09
2023-02-26T21:21:08.448Z,102920.41
2023-02-26T21:23:38.037Z,102927.33
2023-02-26T21:26:07.557Z,102923.44
2023-02-26T21:28:36.833Z,102920.90
2023-02-26T21:31:06.286Z,102921.32
2023-02-26T21:33:35.498Z,102919.61
2023-02-26T21:36:06.386Z,102929.11
2023-02-26T21:38:36.097Z,102925.61
2023-02-26T21:41:06.861Z,102929.52
2023-02-26T21:43:36.178Z,102929.09
2023-02-26T21:46:05.877Z,102935.13
2023-02-26T21:48:35.715Z,102934.29
2023-02-26T21:51:05.483Z,102934.27
2023-02-26T21:53:34.764Z,102934.26
2023-02-26T21:56:04.141Z,102934.72
2023-02-26T21:58:37.975Z,102938.63
2023-02-26T22:01:10.682Z,102935.63
2023-02-26T22:03:40.449Z,102943.37
2023-02-26T22:06:15.571Z,102943.77
2023-02-26T22:08:47.116Z,102936.45
2023-02-26T22:11:18.671Z,102933.86
2023-02-26T22:13:52.604Z,102942.05
2023-02-26T22:16:41.260Z,102936.04
2023-02-26T22:19:11.996Z,102938.65
2023-02-26T22:21:41.600Z,102933.48
2023-02-26T22:24:11.315Z,102940.33
2023-02-26T22:26:40.713Z,102937.73
2023-02-26T22:29:15.082Z,102936.00
2023-02-26T22:31:44.672Z,102939.03
2023-02-26T22:34:16.154Z,102934.31
2023-02-26T22:36:47.659Z,102934.30
2023-02-26T22:39:17.246Z,102931.72
2023-02-26T22:41:48.673Z,102939.48
2023-02-26T22:44:18.412Z,102940.34
2023-02-26T22:46:49.516Z,102939.48
2023-02-26T22:49:19.759Z,102941.63
2023-02-26T22:51:49.947Z,102945.45
2023-02-26T22:54:19.174Z,102947.59
2023-02-26T22:56:48.630Z,102949.73
2023-02-26T22:59:18.257Z,102950.15
2023-02-26T23:01:47.824Z,102952.30
2023-02-26T23:04:17.315Z,102956.63
2023-02-26T23:06:46.703Z,102957.42
2023-02-26T23:09:16.003Z,102958.23
2023-02-26T23:11:45.323Z,102962.09
2023-02-26T23:14:14.618Z,102959.06
2023-02-26T23:16:44.865Z,102967.23
2023-02-26T23:19:14.163Z,102972.75
2023-02-26T23:21:43.408Z,102968.80
2023-02-26T23:24:12.754Z,102969.20
2023-02-26T23:26:42.004Z,102970.42
2023-02-26T23:29:11.566Z,102970.83
2023-02-26T23:31:41.837Z,102964.75
2023-02-26T23:34:11.190Z,102968.14
2023-02-26T23:36:40.800Z,102960.81
2023-02-26T23:39:10.180Z,102956.47
2023-02-26T23:41:39.632Z,102965.61
2023-02-26T23:44:09.005Z,102963.95
2023-02-26T23:46:38.735Z,102958.42
2023-02-26T23:49:09.517Z,102961.48
2023-02-26T23:51:39.297Z,102968.00
2023-02-26T23:54:08.507Z,102966.73
2023-02-26T23:56:38.065Z,102963.77
2023-02-26T23:59:07.681Z,102969.00
